sensor_id;sensor_type;location;lat;lon;timestamp;temperature;humidity
10451;DHT22;5273;51.290;6.918;2023-12-28T00:00:30;7.90;99.90
10451;DHT22;5273;51.290;6.918;2023-12-28T00:02:58;8.00;99.90
10451;DHT22;5273;51.290;6.918;2023-12-28T00:05:25;8.00;99.90
10451;DHT22;5273;51.290;6.918;2023-12-28T00:07:52;8.00;99.90
10451;DHT22;5273;51.290;6.918;2023-12-28T00:10:23;8.00;99.90
10451;DHT22;5273;51.290;6.918;2023-12-28T00:12:50;7.90;99.90
10451;DHT22;5273;51.290;6.918;2023-12-28T00:15:17;8.00;99.90
10451;DHT22;5273;51.290;6.918;2023-12-28T00:17:44;8.00;99.90
10451;DHT22;5273;51.290;6.918;2023-12-28T00:20:12;8.10;99.90
10451;DHT22;5273;51.290;6.918;2023-12-28T00:22:39;8.10;99.90
10451;DHT22;5273;51.290;6.918;2023-12-28T00:25:06;8.20;99.90
10451;DHT22;5273;51.290;6.918;2023-12-28T00:27:33;8.20;99.90
10451;DHT22;5273;51.290;6.918;2023-12-28T00:30:04;8.20;99.90
10451;DHT22;5273;51.290;6.918;2023-12-28T00:32:31;8.30;99.90
10451;DHT22;5273;51.290;6.918;2023-12-28T00:34:57;8.30;99.90
10451;DHT22;5273;51.290;6.918;2023-12-28T00:37:26;8.30;99.90
10451;DHT22;5273;51.290;6.918;2023-12-28T00:39:52;8.40;99.90
10451;DHT22;5273;51.290;6.918;2023-12-28T00:42:19;8.50;99.90
10451;DHT22;5273;51.290;6.918;2023-12-28T00:44:46;8.50;99.90
10451;DHT22;5273;51.290;6.918;2023-12-28T00:47:13;8.70;99.90
10451;DHT22;5273;51.290;6.918;2023-12-28T00:49:40;8.70;99.90
10451;DHT22;5273;51.290;6.918;2023-12-28T00:52:06;8.80;99.90
10451;DHT22;5273;51.290;6.918;2023-12-28T00:54:35;8.80;99.90
10451;DHT22;5273;51.290;6.918;2023-12-28T00:57:03;8.90;99.90
10451;DHT22;5273;51.290;6.918;2023-12-28T00:59:30;8.90;99.90
10451;DHT22;5273;51.290;6.918;2023-12-28T01:01:57;9.00;99.90
10451;DHT22;5273;51.290;6.918;2023-12-28T01:04:24;9.00;99.90
10451;DHT22;5273;51.290;6.918;2023-12-28T01:06:52;9.00;99.90
10451;DHT22;5273;51.290;6.918;2023-12-28T01:09:19;9.10;99.90
10451;DHT22;5273;51.290;6.918;2023-12-28T01:11:47;9.00;99.90
10451;DHT22;5273;51.290;6.918;2023-12-28T01:14:14;9.10;99.90
10451;DHT22;5273;51.290;6.918;2023-12-28T01:16:41;9.00;99.90
10451;DHT22;5273;51.290;6.918;2023-12-28T01:19:09;9.20;99.90
10451;DHT22;5273;51.290;6.918;2023-12-28T01:21:36;9.10;99.90
10451;DHT22;5273;51.290;6.918;2023-12-28T01:24:02;9.10;99.90
10451;DHT22;5273;51.290;6.918;2023-12-28T01:26:29;9.10;99.90
10451;DHT22;5273;51.290;6.918;2023-12-28T01:28:57;9.10;99.90
10451;DHT22;5273;51.290;6.918;2023-12-28T01:31:24;9.10;99.90
10451;DHT22;5273;51.290;6.918;2023-12-28T01:33:51;9.20;99.90
10451;DHT22;5273;51.290;6.918;2023-12-28T01:36:18;9.10;99.90
10451;DHT22;5273;51.290;6.918;2023-12-28T01:38:45;9.10;99.90
10451;DHT22;5273;51.290;6.918;2023-12-28T01:41:12;9.10;99.90
10451;DHT22;5273;51.290;6.918;2023-12-28T01:43:40;9.20;99.90
10451;DHT22;5273;51.290;6.918;2023-12-28T01:46:12;9.10;99.90
10451;DHT22;5273;51.290;6.918;2023-12-28T01:48:41;9.10;99.90
10451;DHT22;5273;51.290;6.918;2023-12-28T01:51:09;9.10;99.90
10451;DHT22;5273;51.290;6.918;2023-12-28T01:53:36;9.10;99.90
10451;DHT22;5273;51.290;6.918;2023-12-28T01:56:04;9.10;99.90
10451;DHT22;5273;51.290;6.918;2023-12-28T01:58:33;9.10;99.90
10451;DHT22;5273;51.290;6.918;2023-12-28T02:01:01;9.10;99.90
10451;DHT22;5273;51.290;6.918;2023-12-28T02:03:31;9.10;99.90
10451;DHT22;5273;51.290;6.918;2023-12-28T02:05:58;9.10;99.90
10451;DHT22;5273;51.290;6.918;2023-12-28T02:08:26;9.10;99.90
10451;DHT22;5273;51.290;6.918;2023-12-28T02:10:52;9.00;99.90
10451;DHT22;5273;51.290;6.918;2023-12-28T02:13:20;9.10;99.90
10451;DHT22;5273;51.290;6.918;2023-12-28T02:15:51;9.10;99.90
10451;DHT22;5273;51.290;6.918;2023-12-28T02:18:23;9.10;99.90
10451;DHT22;5273;51.290;6.918;2023-12-28T02:20:52;9.10;99.90
10451;DHT22;5273;51.290;6.918;2023-12-28T02:23:19;9.10;99.90
10451;DHT22;5273;51.290;6.918;2023-12-28T02:25:48;9.10;99.90
10451;DHT22;5273;51.290;6.918;2023-12-28T02:28:15;9.20;99.90
10451;DHT22;5273;51.290;6.918;2023-12-28T02:30:42;9.20;99.90
10451;DHT22;5273;51.290;6.918;2023-12-28T02:33:24;9.20;99.90
10451;DHT22;5273;51.290;6.918;2023-12-28T02:35:55;9.20;99.90
10451;DHT22;5273;51.290;6.918;2023-12-28T02:38:24;9.20;99.90
10451;DHT22;5273;51.290;6.918;2023-12-28T02:40:53;9.20;99.90
10451;DHT22;5273;51.290;6.918;2023-12-28T02:43:20;9.20;99.90
10451;DHT22;5273;51.290;6.918;2023-12-28T02:45:48;9.20;99.90
10451;DHT22;5273;51.290;6.918;2023-12-28T02:48:14;9.20;99.90
10451;DHT22;5273;51.290;6.918;2023-12-28T02:50:41;9.20;99.90
10451;DHT22;5273;51.290;6.918;2023-12-28T02:53:08;9.20;99.90
10451;DHT22;5273;51.290;6.918;2023-12-28T02:55:35;9.30;99.90
10451;DHT22;5273;51.290;6.918;2023-12-28T02:58:03;9.30;99.90
10451;DHT22;5273;51.290;6.918;2023-12-28T03:00:31;9.30;99.90
10451;DHT22;5273;51.290;6.918;2023-12-28T03:02:57;9.20;99.90
10451;DHT22;5273;51.290;6.918;2023-12-28T03:05:24;9.20;99.90
10451;DHT22;5273;51.290;6.918;2023-12-28T03:07:50;9.40;99.90
10451;DHT22;5273;51.290;6.918;2023-12-28T03:10:17;9.30;99.90
10451;DHT22;5273;51.290;6.918;2023-12-28T03:12:44;9.30;99.90
10451;DHT22;5273;51.290;6.918;2023-12-28T03:15:12;9.30;99.90
10451;DHT22;5273;51.290;6.918;2023-12-28T03:17:39;9.30;99.90
10451;DHT22;5273;51.290;6.918;2023-12-28T03:20:07;9.30;99.90
10451;DHT22;5273;51.290;6.918;2023-12-28T03:22:34;9.30;99.90
10451;DHT22;5273;51.290;6.918;2023-12-28T03:25:01;9.30;99.90
10451;DHT22;5273;51.290;6.918;2023-12-28T03:27:28;9.40;99.90
10451;DHT22;5273;51.290;6.918;2023-12-28T03:29:55;9.30;99.90
10451;DHT22;5273;51.290;6.918;2023-12-28T03:32:23;9.30;99.90
10451;DHT22;5273;51.290;6.918;2023-12-28T03:34:50;9.30;99.90
10451;DHT22;5273;51.290;6.918;2023-12-28T03:37:17;9.40;99.90
10451;DHT22;5273;51.290;6.918;2023-12-28T03:39:44;9.50;99.90
10451;DHT22;5273;51.290;6.918;2023-12-28T03:42:13;9.40;99.90
10451;DHT22;5273;51.290;6.918;2023-12-28T03:44:40;9.40;99.90
10451;DHT22;5273;51.290;6.918;2023-12-28T03:47:07;9.40;99.90
10451;DHT22;5273;51.290;6.918;2023-12-28T03:49:35;9.40;99.90
10451;DHT22;5273;51.290;6.918;2023-12-28T03:52:02;9.30;99.90
10451;DHT22;5273;51.290;6.918;2023-12-28T03:54:29;9.40;99.90
10451;DHT22;5273;51.290;6.918;2023-12-28T03:56:56;9.40;99.90
10451;DHT22;5273;51.290;6.918;2023-12-28T03:59:23;9.50;99.90
10451;DHT22;5273;51.290;6.918;2023-12-28T04:01:50;9.40;99.90
10451;DHT22;5273;51.290;6.918;2023-12-28T04:04:16;9.50;99.90
10451;DHT22;5273;51.290;6.918;2023-12-28T04:06:45;9.50;99.90
10451;DHT22;5273;51.290;6.918;2023-12-28T04:09:12;9.50;99.90
10451;DHT22;5273;51.290;6.918;2023-12-28T04:11:38;9.50;99.90
10451;DHT22;5273;51.290;6.918;2023-12-28T04:14:05;9.60;99.90
10451;DHT22;5273;51.290;6.918;2023-12-28T04:16:32;9.50;99.90
10451;DHT22;5273;51.290;6.918;2023-12-28T04:18:59;9.50;99.90
10451;DHT22;5273;51.290;6.918;2023-12-28T04:21:26;9.50;99.90
10451;DHT22;5273;51.290;6.918;2023-12-28T04:23:54;9.50;99.90
10451;DHT22;5273;51.290;6.918;2023-12-28T04:26:21;9.50;99.90
10451;DHT22;5273;51.290;6.918;2023-12-28T04:28:48;9.50;99.90
10451;DHT22;5273;51.290;6.918;2023-12-28T04:31:15;9.50;99.90
10451;DHT22;5273;51.290;6.918;2023-12-28T04:33:41;9.60;99.90
10451;DHT22;5273;51.290;6.918;2023-12-28T04:36:08;9.50;99.90
10451;DHT22;5273;51.290;6.918;2023-12-28T04:38:35;9.60;99.90
10451;DHT22;5273;51.290;6.918;2023-12-28T04:41:05;9.50;99.90
10451;DHT22;5273;51.290;6.918;2023-12-28T04:43:32;9.50;99.90
10451;DHT22;5273;51.290;6.918;2023-12-28T04:46:03;9.50;99.90
10451;DHT22;5273;51.290;6.918;2023-12-28T04:48:30;9.50;99.90
10451;DHT22;5273;51.290;6.918;2023-12-28T04:50:57;9.50;99.90
10451;DHT22;5273;51.290;6.918;2023-12-28T04:53:24;9.50;99.90
10451;DHT22;5273;51.290;6.918;2023-12-28T04:55:50;9.60;99.90
10451;DHT22;5273;51.290;6.918;2023-12-28T04:58:19;9.60;99.90
10451;DHT22;5273;51.290;6.918;2023-12-28T05:00:46;9.60;99.90
10451;DHT22;5273;51.290;6.918;2023-12-28T05:03:12;9.60;99.90
10451;DHT22;5273;51.290;6.918;2023-12-28T05:05:40;9.50;99.90
10451;DHT22;5273;51.290;6.918;2023-12-28T05:08:07;9.50;99.90
10451;DHT22;5273;51.290;6.918;2023-12-28T05:10:33;9.50;99.90
10451;DHT22;5273;51.290;6.918;2023-12-28T05:13:00;9.40;99.90
10451;DHT22;5273;51.290;6.918;2023-12-28T05:15:29;9.50;99.90
10451;DHT22;5273;51.290;6.918;2023-12-28T05:17:56;9.50;99.90
10451;DHT22;5273;51.290;6.918;2023-12-28T05:20:22;9.50;99.90
10451;DHT22;5273;51.290;6.918;2023-12-28T05:22:49;9.50;99.90
10451;DHT22;5273;51.290;6.918;2023-12-28T05:25:16;9.50;99.90
10451;DHT22;5273;51.290;6.918;2023-12-28T05:27:43;9.50;99.90
10451;DHT22;5273;51.290;6.918;2023-12-28T05:30:10;9.60;99.90
10451;DHT22;5273;51.290;6.918;2023-12-28T05:32:38;9.50;99.90
10451;DHT22;5273;51.290;6.918;2023-12-28T05:35:06;9.50;99.90
10451;DHT22;5273;51.290;6.918;2023-12-28T05:37:33;9.50;99.90
10451;DHT22;5273;51.290;6.918;2023-12-28T05:40:00;9.50;99.90
10451;DHT22;5273;51.290;6.918;2023-12-28T05:42:26;9.50;99.90
10451;DHT22;5273;51.290;6.918;2023-12-28T05:44:53;9.50;99.90
10451;DHT22;5273;51.290;6.918;2023-12-28T05:47:20;9.50;99.90
10451;DHT22;5273;51.290;6.918;2023-12-28T05:49:48;9.50;99.90
10451;DHT22;5273;51.290;6.918;2023-12-28T05:52:15;9.50;99.90
10451;DHT22;5273;51.290;6.918;2023-12-28T05:54:44;9.50;99.90
10451;DHT22;5273;51.290;6.918;2023-12-28T05:57:11;9.60;99.90
10451;DHT22;5273;51.290;6.918;2023-12-28T05:59:38;9.50;99.90
10451;DHT22;5273;51.290;6.918;2023-12-28T06:02:06;9.60;99.90
10451;DHT22;5273;51.290;6.918;2023-12-28T06:04:33;9.60;99.90
10451;DHT22;5273;51.290;6.918;2023-12-28T06:07:02;9.60;99.90
10451;DHT22;5273;51.290;6.918;2023-12-28T06:09:29;9.60;99.90
10451;DHT22;5273;51.290;6.918;2023-12-28T06:11:56;9.60;99.90
10451;DHT22;5273;51.290;6.918;2023-12-28T06:14:23;9.60;99.90
10451;DHT22;5273;51.290;6.918;2023-12-28T06:16:50;9.60;99.90
10451;DHT22;5273;51.290;6.918;2023-12-28T06:19:17;9.60;99.90
10451;DHT22;5273;51.290;6.918;2023-12-28T06:21:43;9.60;99.90
10451;DHT22;5273;51.290;6.918;2023-12-28T06:24:12;9.60;99.90
10451;DHT22;5273;51.290;6.918;2023-12-28T06:26:40;9.60;99.90
10451;DHT22;5273;51.290;6.918;2023-12-28T06:29:07;9.60;99.90
10451;DHT22;5273;51.290;6.918;2023-12-28T06:31:34;9.60;99.90
10451;DHT22;5273;51.290;6.918;2023-12-28T06:34:02;9.60;99.90
10451;DHT22;5273;51.290;6.918;2023-12-28T06:36:29;9.60;99.90
10451;DHT22;5273;51.290;6.918;2023-12-28T06:38:56;9.60;99.90
10451;DHT22;5273;51.290;6.918;2023-12-28T06:41:24;9.70;99.90
10451;DHT22;5273;51.290;6.918;2023-12-28T06:43:51;9.70;99.90
10451;DHT22;5273;51.290;6.918;2023-12-28T06:46:18;9.70;99.90
10451;DHT22;5273;51.290;6.918;2023-12-28T06:48:45;9.70;99.90
10451;DHT22;5273;51.290;6.918;2023-12-28T06:51:16;9.60;99.90
10451;DHT22;5273;51.290;6.918;2023-12-28T06:53:43;9.60;99.90
10451;DHT22;5273;51.290;6.918;2023-12-28T06:56:10;9.60;99.90
10451;DHT22;5273;51.290;6.918;2023-12-28T06:58:38;9.70;99.90
10451;DHT22;5273;51.290;6.918;2023-12-28T07:01:05;9.60;99.90
10451;DHT22;5273;51.290;6.918;2023-12-28T07:03:32;9.60;99.90
10451;DHT22;5273;51.290;6.918;2023-12-28T07:05:59;9.60;99.90
10451;DHT22;5273;51.290;6.918;2023-12-28T07:08:26;9.60;99.90
10451;DHT22;5273;51.290;6.918;2023-12-28T07:10:53;9.60;99.90
10451;DHT22;5273;51.290;6.918;2023-12-28T07:13:19;9.60;99.90
10451;DHT22;5273;51.290;6.918;2023-12-28T07:15:48;9.60;99.90
10451;DHT22;5273;51.290;6.918;2023-12-28T07:18:14;9.60;99.90
10451;DHT22;5273;51.290;6.918;2023-12-28T07:20:41;9.70;99.90
10451;DHT22;5273;51.290;6.918;2023-12-28T07:23:08;9.70;99.90
10451;DHT22;5273;51.290;6.918;2023-12-28T07:25:35;9.70;99.90
10451;DHT22;5273;51.290;6.918;2023-12-28T07:28:02;9.70;99.90
10451;DHT22;5273;51.290;6.918;2023-12-28T07:30:30;9.70;99.90
10451;DHT22;5273;51.290;6.918;2023-12-28T07:32:58;9.70;99.90
10451;DHT22;5273;51.290;6.918;2023-12-28T07:35:25;9.80;99.90
10451;DHT22;5273;51.290;6.918;2023-12-28T07:37:51;9.80;99.90
10451;DHT22;5273;51.290;6.918;2023-12-28T07:40:20;9.80;99.90
10451;DHT22;5273;51.290;6.918;2023-12-28T07:42:46;9.90;99.90
10451;DHT22;5273;51.290;6.918;2023-12-28T07:45:13;9.80;99.90
10451;DHT22;5273;51.290;6.918;2023-12-28T07:47:40;9.80;99.90
10451;DHT22;5273;51.290;6.918;2023-12-28T07:50:09;9.80;99.90
10451;DHT22;5273;51.290;6.918;2023-12-28T07:52:37;9.80;99.90
10451;DHT22;5273;51.290;6.918;2023-12-28T07:55:04;9.80;99.90
10451;DHT22;5273;51.290;6.918;2023-12-28T07:57:31;9.80;99.90
10451;DHT22;5273;51.290;6.918;2023-12-28T07:59:59;9.80;99.90
10451;DHT22;5273;51.290;6.918;2023-12-28T08:02:26;9.80;99.90
10451;DHT22;5273;51.290;6.918;2023-12-28T08:04:53;9.80;99.90
10451;DHT22;5273;51.290;6.918;2023-12-28T08:07:22;9.80;99.90
10451;DHT22;5273;51.290;6.918;2023-12-28T08:09:48;9.80;99.90
10451;DHT22;5273;51.290;6.918;2023-12-28T08:12:16;9.80;99.90
10451;DHT22;5273;51.290;6.918;2023-12-28T08:14:43;9.80;99.90
10451;DHT22;5273;51.290;6.918;2023-12-28T08:17:10;9.80;99.90
10451;DHT22;5273;51.290;6.918;2023-12-28T08:19:37;9.80;99.90
10451;DHT22;5273;51.290;6.918;2023-12-28T08:22:04;9.70;99.90
10451;DHT22;5273;51.290;6.918;2023-12-28T08:24:32;9.80;99.90
10451;DHT22;5273;51.290;6.918;2023-12-28T08:26:59;9.80;99.90
10451;DHT22;5273;51.290;6.918;2023-12-28T08:29:26;9.80;99.90
10451;DHT22;5273;51.290;6.918;2023-12-28T08:31:52;9.80;99.90
10451;DHT22;5273;51.290;6.918;2023-12-28T08:34:20;9.80;99.90
10451;DHT22;5273;51.290;6.918;2023-12-28T08:36:47;9.80;99.90
10451;DHT22;5273;51.290;6.918;2023-12-28T08:39:14;9.80;99.90
10451;DHT22;5273;51.290;6.918;2023-12-28T08:41:42;9.80;99.90
10451;DHT22;5273;51.290;6.918;2023-12-28T08:44:09;9.80;99.90
10451;DHT22;5273;51.290;6.918;2023-12-28T08:46:36;9.90;99.90
10451;DHT22;5273;51.290;6.918;2023-12-28T08:49:03;9.90;99.90
10451;DHT22;5273;51.290;6.918;2023-12-28T08:51:29;9.90;99.90
10451;DHT22;5273;51.290;6.918;2023-12-28T08:53:56;9.90;99.90
10451;DHT22;5273;51.290;6.918;2023-12-28T08:56:23;9.90;99.90
10451;DHT22;5273;51.290;6.918;2023-12-28T08:58:51;10.00;99.90
10451;DHT22;5273;51.290;6.918;2023-12-28T09:01:20;10.00;99.90
10451;DHT22;5273;51.290;6.918;2023-12-28T09:03:48;10.00;99.90
10451;DHT22;5273;51.290;6.918;2023-12-28T09:06:16;10.00;99.90
10451;DHT22;5273;51.290;6.918;2023-12-28T09:08:44;10.00;99.90
10451;DHT22;5273;51.290;6.918;2023-12-28T09:11:11;10.00;99.90
10451;DHT22;5273;51.290;6.918;2023-12-28T09:13:38;10.00;99.90
10451;DHT22;5273;51.290;6.918;2023-12-28T09:16:07;10.00;99.90
10451;DHT22;5273;51.290;6.918;2023-12-28T09:18:34;10.10;99.90
10451;DHT22;5273;51.290;6.918;2023-12-28T09:21:03;10.00;99.90
10451;DHT22;5273;51.290;6.918;2023-12-28T09:23:30;10.10;99.90
10451;DHT22;5273;51.290;6.918;2023-12-28T09:25:57;10.20;99.90
10451;DHT22;5273;51.290;6.918;2023-12-28T09:28:24;10.10;99.90
10451;DHT22;5273;51.290;6.918;2023-12-28T09:30:51;10.20;99.90
10451;DHT22;5273;51.290;6.918;2023-12-28T09:33:19;10.20;99.90
10451;DHT22;5273;51.290;6.918;2023-12-28T09:35:46;10.20;99.90
10451;DHT22;5273;51.290;6.918;2023-12-28T09:38:13;10.20;99.90
10451;DHT22;5273;51.290;6.918;2023-12-28T09:40:42;10.20;99.90
10451;DHT22;5273;51.290;6.918;2023-12-28T09:43:17;10.30;99.90
10451;DHT22;5273;51.290;6.918;2023-12-28T09:45:47;10.30;99.90
10451;DHT22;5273;51.290;6.918;2023-12-28T09:48:15;10.30;99.90
10451;DHT22;5273;51.290;6.918;2023-12-28T09:50:44;10.40;99.90
10451;DHT22;5273;51.290;6.918;2023-12-28T09:53:11;10.40;99.90
10451;DHT22;5273;51.290;6.918;2023-12-28T09:55:38;10.60;99.90
10451;DHT22;5273;51.290;6.918;2023-12-28T09:58:05;10.60;99.90
10451;DHT22;5273;51.290;6.918;2023-12-28T10:00:32;10.70;99.90
10451;DHT22;5273;51.290;6.918;2023-12-28T10:02:59;10.80;99.90
10451;DHT22;5273;51.290;6.918;2023-12-28T10:05:26;11.10;99.90
10451;DHT22;5273;51.290;6.918;2023-12-28T10:07:55;11.80;99.90
10451;DHT22;5273;51.290;6.918;2023-12-28T10:10:22;12.70;99.90
10451;DHT22;5273;51.290;6.918;2023-12-28T10:12:49;13.20;99.90
10451;DHT22;5273;51.290;6.918;2023-12-28T10:15:17;13.80;99.90
10451;DHT22;5273;51.290;6.918;2023-12-28T10:17:43;14.40;99.90
10451;DHT22;5273;51.290;6.918;2023-12-28T10:20:11;14.60;98.90
10451;DHT22;5273;51.290;6.918;2023-12-28T10:22:39;14.30;98.90
10451;DHT22;5273;51.290;6.918;2023-12-28T10:25:08;14.10;99.50
10451;DHT22;5273;51.290;6.918;2023-12-28T10:27:38;13.90;99.50
10451;DHT22;5273;51.290;6.918;2023-12-28T10:30:07;13.70;99.70
10451;DHT22;5273;51.290;6.918;2023-12-28T10:32:34;13.40;99.90
10451;DHT22;5273;51.290;6.918;2023-12-28T10:35:01;13.10;99.90
10451;DHT22;5273;51.290;6.918;2023-12-28T10:37:30;12.90;99.90
10451;DHT22;5273;51.290;6.918;2023-12-28T10:39:59;12.80;99.90
10451;DHT22;5273;51.290;6.918;2023-12-28T10:42:31;12.60;99.90
10451;DHT22;5273;51.290;6.918;2023-12-28T10:45:03;12.50;99.90
10451;DHT22;5273;51.290;6.918;2023-12-28T10:47:32;12.40;99.90
10451;DHT22;5273;51.290;6.918;2023-12-28T10:50:03;12.30;99.90
10451;DHT22;5273;51.290;6.918;2023-12-28T10:52:31;12.20;99.90
10451;DHT22;5273;51.290;6.918;2023-12-28T10:55:13;12.20;99.90
10451;DHT22;5273;51.290;6.918;2023-12-28T10:57:53;12.20;99.90
10451;DHT22;5273;51.290;6.918;2023-12-28T11:00:26;12.50;99.90
10451;DHT22;5273;51.290;6.918;2023-12-28T11:02:58;12.70;99.90
10451;DHT22;5273;51.290;6.918;2023-12-28T11:05:25;12.80;99.90
10451;DHT22;5273;51.290;6.918;2023-12-28T11:07:54;12.80;99.90
10451;DHT22;5273;51.290;6.918;2023-12-28T11:10:24;12.80;99.90
10451;DHT22;5273;51.290;6.918;2023-12-28T11:12:53;12.80;99.90
10451;DHT22;5273;51.290;6.918;2023-12-28T11:15:21;12.80;99.90
10451;DHT22;5273;51.290;6.918;2023-12-28T11:17:49;12.80;99.90
10451;DHT22;5273;51.290;6.918;2023-12-28T11:20:16;12.80;99.90
10451;DHT22;5273;51.290;6.918;2023-12-28T11:22:44;12.70;99.90
10451;DHT22;5273;51.290;6.918;2023-12-28T11:25:15;12.60;99.90
10451;DHT22;5273;51.290;6.918;2023-12-28T11:27:42;12.50;99.90
10451;DHT22;5273;51.290;6.918;2023-12-28T11:30:12;12.50;99.90
10451;DHT22;5273;51.290;6.918;2023-12-28T11:32:40;12.50;99.90
10451;DHT22;5273;51.290;6.918;2023-12-28T11:35:10;12.60;99.90
10451;DHT22;5273;51.290;6.918;2023-12-28T11:37:38;12.70;99.90
10451;DHT22;5273;51.290;6.918;2023-12-28T11:40:11;12.70;99.90
10451;DHT22;5273;51.290;6.918;2023-12-28T11:42:47;12.80;99.90
10451;DHT22;5273;51.290;6.918;2023-12-28T11:45:16;12.80;99.90
10451;DHT22;5273;51.290;6.918;2023-12-28T11:47:43;12.80;99.90
10451;DHT22;5273;51.290;6.918;2023-12-28T11:50:11;12.80;99.90
10451;DHT22;5273;51.290;6.918;2023-12-28T11:52:38;12.80;99.90
10451;DHT22;5273;51.290;6.918;2023-12-28T11:55:06;12.90;99.90
10451;DHT22;5273;51.290;6.918;2023-12-28T11:57:32;12.90;99.90
10451;DHT22;5273;51.290;6.918;2023-12-28T12:00:03;12.80;99.90
10451;DHT22;5273;51.290;6.918;2023-12-28T12:02:31;12.80;99.90
10451;DHT22;5273;51.290;6.918;2023-12-28T12:04:59;12.80;99.90
10451;DHT22;5273;51.290;6.918;2023-12-28T12:07:27;12.80;99.90
10451;DHT22;5273;51.290;6.918;2023-12-28T12:09:57;12.90;99.90
10451;DHT22;5273;51.290;6.918;2023-12-28T12:12:25;12.70;99.90
10451;DHT22;5273;51.290;6.918;2023-12-28T12:14:52;12.70;99.90
10451;DHT22;5273;51.290;6.918;2023-12-28T12:17:19;12.60;99.90
10451;DHT22;5273;51.290;6.918;2023-12-28T12:19:47;12.70;99.90
10451;DHT22;5273;51.290;6.918;2023-12-28T12:22:16;12.50;99.90
10451;DHT22;5273;51.290;6.918;2023-12-28T12:24:44;12.60;99.90
10451;DHT22;5273;51.290;6.918;2023-12-28T12:27:13;12.60;99.90
10451;DHT22;5273;51.290;6.918;2023-12-28T12:29:40;12.50;99.90
10451;DHT22;5273;51.290;6.918;2023-12-28T12:32:07;12.50;99.90
10451;DHT22;5273;51.290;6.918;2023-12-28T12:34:34;12.40;99.90
10451;DHT22;5273;51.290;6.918;2023-12-28T12:37:03;12.30;99.90
10451;DHT22;5273;51.290;6.918;2023-12-28T12:39:30;12.30;99.90
10451;DHT22;5273;51.290;6.918;2023-12-28T12:41:58;12.30;99.90
10451;DHT22;5273;51.290;6.918;2023-12-28T12:44:24;12.20;99.90
10451;DHT22;5273;51.290;6.918;2023-12-28T12:46:57;12.20;99.90
10451;DHT22;5273;51.290;6.918;2023-12-28T12:49:24;12.20;99.90
10451;DHT22;5273;51.290;6.918;2023-12-28T12:51:51;12.10;99.90
10451;DHT22;5273;51.290;6.918;2023-12-28T12:54:19;12.10;99.90
10451;DHT22;5273;51.290;6.918;2023-12-28T12:56:46;12.10;99.90
10451;DHT22;5273;51.290;6.918;2023-12-28T12:59:13;12.10;99.90
10451;DHT22;5273;51.290;6.918;2023-12-28T13:01:43;12.00;99.90
10451;DHT22;5273;51.290;6.918;2023-12-28T13:04:10;12.00;99.90
10451;DHT22;5273;51.290;6.918;2023-12-28T13:06:37;12.00;99.90
10451;DHT22;5273;51.290;6.918;2023-12-28T13:09:04;12.00;99.90
10451;DHT22;5273;51.290;6.918;2023-12-28T13:11:34;12.00;99.90
10451;DHT22;5273;51.290;6.918;2023-12-28T13:14:00;12.20;99.90
10451;DHT22;5273;51.290;6.918;2023-12-28T13:16:27;12.00;99.90
10451;DHT22;5273;51.290;6.918;2023-12-28T13:18:54;12.00;99.90
10451;DHT22;5273;51.290;6.918;2023-12-28T13:21:21;11.90;99.90
10451;DHT22;5273;51.290;6.918;2023-12-28T13:23:48;12.00;99.90
10451;DHT22;5273;51.290;6.918;2023-12-28T13:26:15;11.90;99.90
10451;DHT22;5273;51.290;6.918;2023-12-28T13:28:43;11.90;99.90
10451;DHT22;5273;51.290;6.918;2023-12-28T13:31:10;11.90;99.90
10451;DHT22;5273;51.290;6.918;2023-12-28T13:33:36;11.90;99.90
10451;DHT22;5273;51.290;6.918;2023-12-28T13:36:04;11.90;99.90
10451;DHT22;5273;51.290;6.918;2023-12-28T13:38:31;11.90;99.90
10451;DHT22;5273;51.290;6.918;2023-12-28T13:40:57;11.90;99.90
10451;DHT22;5273;51.290;6.918;2023-12-28T13:43:24;11.80;99.90
10451;DHT22;5273;51.290;6.918;2023-12-28T13:45:52;11.80;99.90
10451;DHT22;5273;51.290;6.918;2023-12-28T13:48:19;11.80;99.90
10451;DHT22;5273;51.290;6.918;2023-12-28T13:50:46;11.70;99.90
10451;DHT22;5273;51.290;6.918;2023-12-28T13:53:13;11.80;99.90
10451;DHT22;5273;51.290;6.918;2023-12-28T13:55:40;11.80;99.90
10451;DHT22;5273;51.290;6.918;2023-12-28T13:58:06;11.70;99.90
10451;DHT22;5273;51.290;6.918;2023-12-28T14:00:34;11.70;99.90
10451;DHT22;5273;51.290;6.918;2023-12-28T14:03:02;11.70;99.90
10451;DHT22;5273;51.290;6.918;2023-12-28T14:05:29;11.60;99.90
10451;DHT22;5273;51.290;6.918;2023-12-28T14:07:56;11.60;99.90
10451;DHT22;5273;51.290;6.918;2023-12-28T14:10:23;11.60;99.90
10451;DHT22;5273;51.290;6.918;2023-12-28T14:12:50;11.60;99.90
10451;DHT22;5273;51.290;6.918;2023-12-28T14:15:17;11.60;99.90
10451;DHT22;5273;51.290;6.918;2023-12-28T14:17:45;11.50;99.90
10451;DHT22;5273;51.290;6.918;2023-12-28T14:20:13;11.50;99.90
10451;DHT22;5273;51.290;6.918;2023-12-28T14:22:41;11.50;99.90
10451;DHT22;5273;51.290;6.918;2023-12-28T14:25:09;11.50;99.90
10451;DHT22;5273;51.290;6.918;2023-12-28T14:27:37;11.50;99.90
10451;DHT22;5273;51.290;6.918;2023-12-28T14:30:06;11.40;99.90
10451;DHT22;5273;51.290;6.918;2023-12-28T14:32:36;11.40;99.90
10451;DHT22;5273;51.290;6.918;2023-12-28T14:35:03;11.30;99.90
10451;DHT22;5273;51.290;6.918;2023-12-28T14:37:32;11.30;99.90
10451;DHT22;5273;51.290;6.918;2023-12-28T14:39:59;11.30;99.90
10451;DHT22;5273;51.290;6.918;2023-12-28T14:42:31;11.30;99.90
10451;DHT22;5273;51.290;6.918;2023-12-28T14:44:58;11.30;99.90
10451;DHT22;5273;51.290;6.918;2023-12-28T14:47:26;11.30;99.90
10451;DHT22;5273;51.290;6.918;2023-12-28T14:49:53;11.30;99.90
10451;DHT22;5273;51.290;6.918;2023-12-28T14:52:22;11.30;99.90
10451;DHT22;5273;51.290;6.918;2023-12-28T14:54:51;11.20;99.90
10451;DHT22;5273;51.290;6.918;2023-12-28T14:57:19;11.20;99.90
10451;DHT22;5273;51.290;6.918;2023-12-28T14:59:46;11.20;99.90
10451;DHT22;5273;51.290;6.918;2023-12-28T15:02:13;11.20;99.90
10451;DHT22;5273;51.290;6.918;2023-12-28T15:04:40;11.10;99.90
10451;DHT22;5273;51.290;6.918;2023-12-28T15:07:07;11.10;99.90
10451;DHT22;5273;51.290;6.918;2023-12-28T15:09:34;11.10;99.90
10451;DHT22;5273;51.290;6.918;2023-12-28T15:12:03;11.10;99.90
10451;DHT22;5273;51.290;6.918;2023-12-28T15:14:30;11.00;99.90
10451;DHT22;5273;51.290;6.918;2023-12-28T15:16:58;11.00;99.90
10451;DHT22;5273;51.290;6.918;2023-12-28T15:19:25;11.00;99.90
10451;DHT22;5273;51.290;6.918;2023-12-28T15:21:52;10.90;99.90
10451;DHT22;5273;51.290;6.918;2023-12-28T15:24:20;10.90;99.90
10451;DHT22;5273;51.290;6.918;2023-12-28T15:26:47;10.80;99.90
10451;DHT22;5273;51.290;6.918;2023-12-28T15:29:15;10.80;99.90
10451;DHT22;5273;51.290;6.918;2023-12-28T15:31:42;10.90;99.90
10451;DHT22;5273;51.290;6.918;2023-12-28T15:34:09;10.80;99.90
10451;DHT22;5273;51.290;6.918;2023-12-28T15:36:36;10.70;99.90
10451;DHT22;5273;51.290;6.918;2023-12-28T15:39:03;10.70;99.90
10451;DHT22;5273;51.290;6.918;2023-12-28T15:41:31;10.70;99.90
10451;DHT22;5273;51.290;6.918;2023-12-28T15:43:58;10.70;99.90
10451;DHT22;5273;51.290;6.918;2023-12-28T15:46:26;10.60;99.90
10451;DHT22;5273;51.290;6.918;2023-12-28T15:48:53;10.50;99.90
10451;DHT22;5273;51.290;6.918;2023-12-28T15:51:20;10.50;99.90
10451;DHT22;5273;51.290;6.918;2023-12-28T15:53:47;10.50;99.90
10451;DHT22;5273;51.290;6.918;2023-12-28T15:56:14;10.50;99.90